Time;durP1;ratioP1;P1;durP2;ratioP2;P2;SDS_P1;SDS_P2;PMS_P1;PMS_P2;Temp;Humidity;BMP_temperature;BMP_pressure;BME280_temperature;BME280_humidity;BME280_pressure;Samples;Min_cycle;Max_cycle;Signal;HPM_P1;HPM_P2
2022/08/02 00:01:22;;;;;;;;;;;;;;;11.23;100.00;101398.94;5019240;28;20378;-74
2022/08/02 00:03:47;;;;;;;;;;;;;;;11.22;100.00;101392.75;5018665;28;19955;-74
2022/08/02 00:06:12;;;;;;;;;;;;;;;11.19;100.00;101388.53;5017896;28;20436;-74
2022/08/02 00:08:37;;;;;;;;;;;;;;;11.24;100.00;101392.56;5021773;28;19988;-74
2022/08/02 00:11:03;;;;;;;;;;;;;;;11.16;100.00;101388.00;5021138;28;19909;-74
2022/08/02 00:13:28;;;;;;;;;;;;;;;11.16;100.00;101390.66;5019916;28;19919;-75
2022/08/02 00:15:53;;;;;;;;;;;;;;;11.12;100.00;101383.94;5021517;28;19920;-73
2022/08/02 00:18:19;;;;;;;;;;;;;;;11.08;100.00;101387.91;5022831;28;20422;-75
2022/08/02 00:20:44;;;;;;;;;;;;;;;11.12;100.00;101391.94;5024251;28;19913;-74
2022/08/02 00:23:09;;;;;;;;;;;;;;;11.13;100.00;101396.31;5021469;28;19941;-74
2022/08/02 00:25:35;;;;;;;;;;;;;;;11.17;100.00;101387.03;5024428;28;19936;-74
2022/08/02 00:28:00;;;;;;;;;;;;;;;11.12;100.00;101383.94;5020938;28;20018;-75
2022/08/02 00:30:25;;;;;;;;;;;;;;;11.11;100.00;101380.44;5022010;28;19913;-74
2022/08/02 00:32:51;;;;;;;;;;;;;;;11.04;100.00;101376.69;5005777;28;19913;-76
2022/08/02 00:35:16;;;;;;;;;;;;;;;11.01;100.00;101373.47;5022278;28;19925;-74
2022/08/02 00:37:41;;;;;;;;;;;;;;;11.02;100.00;101378.66;5022457;28;19913;-75
2022/08/02 00:40:08;;;;;;;;;;;;;;;10.94;100.00;101376.75;5003341;28;20294;-75
2022/08/02 00:42:33;;;;;;;;;;;;;;;10.89;100.00;101381.69;5022820;28;19913;-76
2022/08/02 00:44:58;;;;;;;;;;;;;;;10.79;100.00;101378.22;5021837;28;20020;-74
2022/08/02 00:47:24;;;;;;;;;;;;;;;10.77;100.00;101381.06;5020456;28;20430;-74
2022/08/02 00:49:49;;;;;;;;;;;;;;;10.73;100.00;101379.66;5018594;28;19912;-73
2022/08/02 00:52:14;;;;;;;;;;;;;;;10.70;100.00;101374.63;5020343;28;20425;-74
2022/08/02 00:54:40;;;;;;;;;;;;;;;10.71;100.00;101388.81;5023874;28;19917;-74
2022/08/02 00:57:05;;;;;;;;;;;;;;;10.65;100.00;101386.72;5019918;28;19924;-74
2022/08/02 00:59:30;;;;;;;;;;;;;;;10.60;100.00;101387.16;5023271;28;19909;-74
2022/08/02 01:01:56;;;;;;;;;;;;;;;10.52;100.00;101393.25;5020860;28;19921;-73
2022/08/02 01:04:21;;;;;;;;;;;;;;;10.46;100.00;101385.81;5018295;28;19916;-75
2022/08/02 01:06:46;;;;;;;;;;;;;;;10.47;100.00;101395.50;5021561;28;19924;-74
2022/08/02 01:09:11;;;;;;;;;;;;;;;10.43;100.00;101383.44;5019639;28;19913;-75
2022/08/02 01:11:37;;;;;;;;;;;;;;;10.38;100.00;101380.38;5021962;28;19916;-74
2022/08/02 01:14:07;;;;;;;;;;;;;;;10.38;100.00;101385.72;5020805;28;19920;-74
2022/08/02 01:16:36;;;;;;;;;;;;;;;10.36;100.00;101390.34;5013304;28;19917;-74
2022/08/02 01:19:09;;;;;;;;;;;;;;;10.34;100.00;101386.97;5020320;28;19917;-74
2022/08/02 01:21:40;;;;;;;;;;;;;;;10.32;100.00;101392.47;5029090;28;20313;-75
2022/08/02 01:24:06;;;;;;;;;;;;;;;10.29;100.00;101394.59;5019306;28;19988;-73
2022/08/02 01:26:40;;;;;;;;;;;;;;;10.29;100.00;101389.25;5023171;28;19909;-75
2022/08/02 01:29:12;;;;;;;;;;;;;;;10.29;100.00;101390.06;5019033;28;19924;-73
2022/08/02 01:31:37;;;;;;;;;;;;;;;10.21;100.00;101392.63;5021779;28;19916;-74
2022/08/02 01:34:05;;;;;;;;;;;;;;;10.18;100.00;101402.72;5002658;28;19924;-75
2022/08/02 01:36:34;;;;;;;;;;;;;;;10.12;100.00;101391.66;5027463;28;19956;-74
2022/08/02 01:39:00;;;;;;;;;;;;;;;10.12;100.00;101391.66;5021010;28;19908;-74
2022/08/02 01:41:27;;;;;;;;;;;;;;;10.11;100.00;101397.09;5020854;28;19927;-74
2022/08/02 01:44:00;;;;;;;;;;;;;;;10.07;100.00;101388.56;5022196;28;19909;-74
2022/08/02 01:46:26;;;;;;;;;;;;;;;10.02;100.00;101396.16;5020787;28;20710;-74
2022/08/02 01:48:53;;;;;;;;;;;;;;;10.04;100.00;101396.84;5007479;28;19916;-75
2022/08/02 01:52:20;;;;;;;;;;;;;;;10.07;100.00;101398.41;5009983;28;19920;-74
2022/08/02 01:54:08;;;;;;;;;;;;;;;9.97;100.00;101387.72;5018763;28;19921;-74
2022/08/02 01:56:34;;;;;;;;;;;;;;;9.95;100.00;101395.06;5021057;28;19915;-74
2022/08/02 01:58:59;;;;;;;;;;;;;;;9.92;100.00;101395.31;5018788;28;19912;-76
2022/08/02 02:01:25;;;;;;;;;;;;;;;9.88;100.00;101393.91;5020037;28;19960;-73
2022/08/02 02:03:50;;;;;;;;;;;;;;;9.85;100.00;101392.38;5019922;28;20297;-74
2022/08/02 02:06:17;;;;;;;;;;;;;;;9.89;100.00;101400.94;5020201;28;20305;-73
2022/08/02 02:08:43;;;;;;;;;;;;;;;9.90;100.00;101398.16;5022039;28;19913;-75
2022/08/02 02:11:08;;;;;;;;;;;;;;;9.86;100.00;101412.75;5017478;28;19909;-73
2022/08/02 02:13:36;;;;;;;;;;;;;;;9.84;100.00;101408.53;5020604;28;20448;-73
2022/08/02 02:16:03;;;;;;;;;;;;;;;9.85;100.00;101411.03;5015047;28;19963;-74
2022/08/02 02:18:29;;;;;;;;;;;;;;;9.82;100.00;101405.16;5013620;28;20436;-75
2022/08/02 02:20:55;;;;;;;;;;;;;;;9.81;100.00;101415.00;5002009;28;19921;-74
2022/08/02 02:23:20;;;;;;;;;;;;;;;9.80;100.00;101407.97;5020461;28;19917;-75
2022/08/02 02:25:46;;;;;;;;;;;;;;;9.81;100.00;101400.81;5019981;28;20298;-74
2022/08/02 02:28:23;;;;;;;;;;;;;;;9.82;100.00;101407.84;5018888;28;19960;-74
2022/08/02 02:30:52;;;;;;;;;;;;;;;9.91;100.00;101410.50;5018507;28;19913;-74
2022/08/02 02:33:17;;;;;;;;;;;;;;;9.80;100.00;101404.47;5018116;28;19913;-74
2022/08/02 02:35:43;;;;;;;;;;;;;;;9.80;100.00;101399.97;5020110;28;19950;-75
2022/08/02 02:38:12;;;;;;;;;;;;;;;9.74;100.00;101395.22;5017517;28;19913;-74
2022/08/02 02:40:39;;;;;;;;;;;;;;;9.69;100.00;101395.63;5021059;28;19920;-74
2022/08/02 02:43:05;;;;;;;;;;;;;;;9.65;100.00;101394.22;5014489;28;19909;-74
2022/08/02 02:45:30;;;;;;;;;;;;;;;9.59;100.00;101397.44;5022027;28;20004;-74
2022/08/02 02:47:57;;;;;;;;;;;;;;;9.55;100.00;101392.53;5011527;28;20282;-74
2022/08/02 02:50:22;;;;;;;;;;;;;;;9.51;100.00;101384.81;5018601;28;20289;-74
2022/08/02 02:52:49;;;;;;;;;;;;;;;9.46;100.00;101380.91;5019786;28;19909;-76
2022/08/02 02:55:16;;;;;;;;;;;;;;;9.43;100.00;101376.66;5017741;28;19983;-76
2022/08/02 02:57:41;;;;;;;;;;;;;;;9.41;100.00;101372.47;5003115;28;19908;-74
2022/08/02 03:00:11;;;;;;;;;;;;;;;9.40;100.00;101370.78;5016685;28;20335;-76
2022/08/02 03:02:37;;;;;;;;;;;;;;;9.36;100.00;101377.38;5019512;28;19997;-74
2022/08/02 03:05:03;;;;;;;;;;;;;;;9.35;100.00;101373.88;5017311;28;20267;-74
2022/08/02 03:07:28;;;;;;;;;;;;;;;9.35;100.00;101379.19;5018302;28;19942;-74
2022/08/02 03:09:54;;;;;;;;;;;;;;;9.32;100.00;101370.63;5015750;28;20015;-74
2022/08/02 03:12:19;;;;;;;;;;;;;;;9.28;100.00;101368.25;5018595;28;20031;-74
2022/08/02 03:14:45;;;;;;;;;;;;;;;9.26;100.00;101366.72;5019138;28;19917;-73
2022/08/02 03:17:10;;;;;;;;;;;;;;;9.23;100.00;101356.34;5016567;28;20267;-73
2022/08/02 03:19:35;;;;;;;;;;;;;;;9.20;100.00;101352.13;5002632;28;19913;-76
2022/08/02 03:22:01;;;;;;;;;;;;;;;9.17;100.00;101352.38;5018299;28;19913;-75
2022/08/02 03:24:26;;;;;;;;;;;;;;;9.17;100.00;101346.22;5018999;28;19909;-74
2022/08/02 03:26:51;;;;;;;;;;;;;;;9.17;100.00;101343.56;5018242;28;19913;-75
2022/08/02 03:29:17;;;;;;;;;;;;;;;9.16;100.00;101339.22;5001804;28;19984;-75
2022/08/02 03:31:44;;;;;;;;;;;;;;;9.17;100.00;101351.56;5015188;28;19920;-74
2022/08/02 03:34:09;;;;;;;;;;;;;;;9.15;100.00;101342.84;5016623;28;19991;-74
2022/08/02 03:39:03;;;;;;;;;;;;;;;9.13;100.00;101345.69;5023784;28;19921;-73
2022/08/02 03:41:29;;;;;;;;;;;;;;;9.13;100.00;101344.81;5022463;28;19992;-73
2022/08/02 03:43:54;;;;;;;;;;;;;;;9.14;100.00;101347.34;5044822;28;19932;-73
2022/08/02 03:46:21;;;;;;;;;;;;;;;9.15;100.00;101349.03;5028186;28;19967;-73
2022/08/02 03:48:47;;;;;;;;;;;;;;;9.18;100.00;101351.44;5016928;28;19916;-74
2022/08/02 03:51:12;;;;;;;;;;;;;;;9.22;100.00;101355.47;5024512;28;19913;-74
2022/08/02 03:53:38;;;;;;;;;;;;;;;9.26;100.00;101359.56;5015336;28;19992;-74
2022/08/02 03:56:04;;;;;;;;;;;;;;;9.26;100.00;101356.88;5009497;28;19918;-74
2022/08/02 03:58:29;;;;;;;;;;;;;;;9.29;100.00;101361.97;5015775;28;20186;-73
2022/08/02 04:00:55;;;;;;;;;;;;;;;9.33;100.00;101367.00;5009105;28;20379;-74
2022/08/02 04:03:21;;;;;;;;;;;;;;;9.24;100.00;101353.53;5006933;28;20492;-74
2022/08/02 04:05:46;;;;;;;;;;;;;;;9.31;100.00;101367.13;5022162;28;19924;-74
2022/08/02 04:08:11;;;;;;;;;;;;;;;9.34;100.00;101366.88;5018841;28;19909;-74
2022/08/02 04:13:23;;;;;;;;;;;;;;;9.45;100.00;101361.38;5016975;28;19917;-74
2022/08/02 04:15:49;;;;;;;;;;;;;;;9.51;100.00;101368.00;5024102;28;19913;-74
2022/08/02 04:18:16;;;;;;;;;;;;;;;9.60;100.00;101368.94;5009448;28;20663;-74
2022/08/02 04:20:42;;;;;;;;;;;;;;;9.66;100.00;101371.91;5009418;28;20271;-74
2022/08/02 04:23:10;;;;;;;;;;;;;;;9.68;100.00;101366.44;5002533;28;19920;-74
2022/08/02 04:25:36;;;;;;;;;;;;;;;9.73;100.00;101367.69;5016078;28;20007;-74
2022/08/02 04:28:01;;;;;;;;;;;;;;;9.85;100.00;101379.03;5009637;28;19950;-74
